Time;durP1;ratioP1;P1;durP2;ratioP2;P2;SDS_P1;SDS_P2;PMS_P1;PMS_P2;Temp;Humidity;BMP_temperature;BMP_pressure;BME280_temperature;BME280_humidity;BME280_pressure;Samples;Min_cycle;Max_cycle;Signal;HPM_P1;HPM_P2
2020/12/05 00:02:20;;;;;;;34.65;19.52;;;5.00;93.80;;;;;;5031660;28;20024;-71
2020/12/05 00:04:46;;;;;;;36.10;20.80;;;5.00;93.70;;;;;;5048673;28;20099;-71
2020/12/05 00:07:13;;;;;;;34.90;21.20;;;5.00;93.70;;;;;;5036642;28;20334;-71
2020/12/05 00:09:39;;;;;;;39.08;20.40;;;5.10;93.70;;;;;;5033948;28;20057;-70
2020/12/05 00:12:07;;;;;;;35.25;20.40;;;5.10;93.60;;;;;;5049574;28;20477;-70
2020/12/05 00:14:33;;;;;;;33.17;20.73;;;5.10;93.60;;;;;;5048085;28;20382;-71
2020/12/05 00:16:58;;;;;;;37.95;21.10;;;5.10;93.50;;;;;;5047159;28;20142;-71
2020/12/05 00:19:24;;;;;;;36.92;20.38;;;5.10;93.50;;;;;;5027953;28;20396;-71
2020/12/05 00:21:53;;;;;;;36.10;20.63;;;5.10;93.50;;;;;;5051761;28;20027;-71
2020/12/05 00:24:19;;;;;;;33.83;19.92;;;5.10;93.40;;;;;;5033896;28;20033;-71
2020/12/05 00:26:48;;;;;;;37.13;20.95;;;5.10;93.30;;;;;;5045877;28;20029;-71
2020/12/05 00:29:13;;;;;;;39.85;21.05;;;5.10;93.30;;;;;;5035138;28;20052;-71
2020/12/05 00:31:39;;;;;;;35.17;21.05;;;5.10;93.20;;;;;;5040741;28;20049;-71
2020/12/05 00:34:04;;;;;;;39.38;22.05;;;5.10;93.20;;;;;;5050295;28;20552;-71
2020/12/05 00:36:51;;;;;;;40.75;22.52;;;5.10;93.20;;;;;;5050081;28;20433;-71
2020/12/05 00:39:37;;;;;;;43.00;23.58;;;5.10;93.20;;;;;;5034808;28;20111;-71
2020/12/05 00:42:24;;;;;;;36.90;21.10;;;5.10;93.10;;;;;;5049321;28;20044;-71
2020/12/05 00:44:50;;;;;;;33.63;20.13;;;5.00;93.20;;;;;;5053194;28;20033;-71
2020/12/05 00:47:15;;;;;;;38.03;22.10;;;5.00;93.20;;;;;;5049334;28;20075;-73
2020/12/05 00:49:41;;;;;;;36.92;21.98;;;5.00;93.10;;;;;;5051377;28;20456;-73
2020/12/05 00:52:07;;;;;;;40.53;23.67;;;5.00;93.20;;;;;;5040640;28;20034;-73
2020/12/05 00:54:32;;;;;;;39.33;22.73;;;5.00;93.20;;;;;;5033350;28;20056;-72
2020/12/05 00:56:57;;;;;;;36.40;22.45;;;4.90;93.20;;;;;;5044558;28;20121;-72
2020/12/05 00:59:23;;;;;;;39.42;22.27;;;5.00;93.20;;;;;;5048133;28;20025;-73
2020/12/05 01:01:56;;;;;;;39.05;23.00;;;5.00;93.20;;;;;;5050298;28;20115;-72
2020/12/05 01:04:22;;;;;;;38.22;22.48;;;5.00;93.20;;;;;;5041415;28;20087;-72
2020/12/05 01:06:48;;;;;;;43.92;24.00;;;5.00;93.20;;;;;;5051029;28;20116;-72
2020/12/05 01:09:14;;;;;;;40.38;22.48;;;4.90;93.20;;;;;;5045339;28;20108;-72
2020/12/05 01:11:39;;;;;;;36.15;21.02;;;4.90;93.30;;;;;;5042027;28;20052;-73
2020/12/05 01:14:05;;;;;;;38.83;23.05;;;4.90;93.30;;;;;;5048451;28;20029;-71
2020/12/05 01:16:31;;;;;;;41.70;23.98;;;4.90;93.40;;;;;;5051401;28;20036;-73
2020/12/05 01:18:57;;;;;;;38.30;21.48;;;4.90;93.40;;;;;;5045928;28;20033;-73
2020/12/05 01:21:22;;;;;;;34.88;21.15;;;4.90;93.30;;;;;;5038313;28;20540;-73
2020/12/05 01:23:48;;;;;;;35.38;22.58;;;4.90;93.30;;;;;;5038986;28;20045;-73
2020/12/05 01:26:13;;;;;;;37.22;20.23;;;4.90;93.40;;;;;;5037815;28;20055;-73
2020/12/05 01:28:39;;;;;;;34.88;19.98;;;4.90;93.30;;;;;;5039768;28;20052;-73
2020/12/05 01:31:05;;;;;;;32.97;19.27;;;4.90;93.30;;;;;;5035493;28;20060;-73
2020/12/05 01:33:31;;;;;;;37.65;20.50;;;5.00;93.30;;;;;;5045862;28;20417;-71
2020/12/05 01:36:00;;;;;;;32.40;20.13;;;4.90;93.30;;;;;;5036437;28;20067;-72
2020/12/05 01:38:26;;;;;;;34.22;20.50;;;5.00;93.40;;;;;;5052490;28;20044;-72
2020/12/05 01:40:59;;;;;;;31.90;20.02;;;5.00;93.30;;;;;;5034449;28;20041;-72
2020/12/05 01:43:30;;;;;;;32.63;20.17;;;5.10;93.30;;;;;;5050293;28;20055;-72
2020/12/05 01:46:03;;;;;;;35.88;21.25;;;5.00;93.30;;;;;;5051516;28;20037;-72
2020/12/05 01:48:28;;;;;;;38.40;20.33;;;5.00;93.30;;;;;;5033764;28;20029;-72
2020/12/05 01:50:55;;;;;;;40.22;21.35;;;5.00;93.30;;;;;;5033660;28;20393;-71
2020/12/05 01:53:21;;;;;;;35.13;19.90;;;5.00;93.30;;;;;;5032048;28;20128;-71
2020/12/05 01:55:50;;;;;;;37.60;22.02;;;5.00;93.30;;;;;;5050977;28;20159;-71
2020/12/05 01:58:17;;;;;;;37.25;20.98;;;5.00;93.30;;;;;;5044574;28;20072;-71
2020/12/05 02:00:44;;;;;;;39.67;21.27;;;5.00;93.30;;;;;;5043453;28;20026;-71
2020/12/05 02:03:15;;;;;;;36.28;20.23;;;5.00;93.30;;;;;;5048156;28;20095;-72
2020/12/05 02:05:54;;;;;;;37.28;21.75;;;4.90;93.20;;;;;;5041207;28;20555;-72
2020/12/05 02:08:38;;;;;;;35.17;19.85;;;4.90;93.20;;;;;;5033357;28;20064;-72
2020/12/05 02:11:06;;;;;;;31.88;19.30;;;4.90;93.20;;;;;;5050808;28;20099;-72
2020/12/05 02:13:43;;;;;;;36.28;20.83;;;4.90;93.20;;;;;;5040294;28;20026;-71
2020/12/05 02:16:09;;;;;;;39.35;20.98;;;4.80;93.30;;;;;;5033403;28;20566;-72
2020/12/05 02:18:36;;;;;;;31.73;19.42;;;4.80;93.30;;;;;;5050093;28;20033;-71
2020/12/05 02:21:26;;;;;;;35.15;20.45;;;4.80;93.30;;;;;;5035625;28;20032;-71
2020/12/05 02:23:52;;;;;;;37.03;21.48;;;4.70;93.40;;;;;;5050819;28;20090;-71
2020/12/05 02:26:18;;;;;;;36.03;20.45;;;4.70;93.50;;;;;;5049686;28;20477;-72
2020/12/05 02:28:49;;;;;;;37.55;20.98;;;4.60;93.50;;;;;;5049210;28;20033;-71
2020/12/05 02:31:15;;;;;;;34.50;21.08;;;4.60;93.60;;;;;;5045736;28;20075;-71
2020/12/05 02:33:42;;;;;;;37.22;20.85;;;4.60;93.60;;;;;;5050533;28;20485;-71
2020/12/05 02:36:07;;;;;;;36.45;20.55;;;4.60;93.60;;;;;;5043633;28;20029;-71
2020/12/05 02:39:02;;;;;;;34.22;19.65;;;4.60;93.50;;;;;;5044730;28;20036;-71
2020/12/05 02:41:28;;;;;;;35.33;20.55;;;4.70;93.60;;;;;;5032862;28;20049;-71
2020/12/05 02:43:53;;;;;;;35.08;20.08;;;4.70;93.60;;;;;;5049131;28;20068;-71
2020/12/05 02:46:20;;;;;;;33.95;20.17;;;4.70;93.60;;;;;;5043256;28;20032;-70
2020/12/05 02:48:46;;;;;;;33.42;20.05;;;4.70;93.60;;;;;;5047469;28;20056;-70
2020/12/05 02:51:12;;;;;;;37.08;19.42;;;4.70;93.60;;;;;;5051221;28;20051;-70
2020/12/05 02:53:37;;;;;;;35.30;19.45;;;4.70;93.60;;;;;;5049239;28;20102;-70
2020/12/05 02:56:03;;;;;;;30.75;18.90;;;4.70;93.60;;;;;;5049640;28;20025;-70
2020/12/05 02:58:28;;;;;;;31.67;18.02;;;4.70;93.60;;;;;;5047939;28;20477;-70
2020/12/05 03:00:54;;;;;;;37.15;20.33;;;4.70;93.60;;;;;;5036837;28;20040;-70
2020/12/05 03:03:19;;;;;;;34.97;20.33;;;4.70;93.60;;;;;;5045525;28;20029;-70
2020/12/05 03:05:45;;;;;;;33.72;19.13;;;4.70;93.60;;;;;;5050181;28;20626;-70
2020/12/05 03:08:10;;;;;;;34.72;19.75;;;4.70;93.60;;;;;;5044754;28;20109;-70
2020/12/05 03:10:36;;;;;;;35.80;21.20;;;4.70;93.70;;;;;;5030928;28;20470;-70
2020/12/05 03:13:01;;;;;;;33.78;19.45;;;4.70;93.50;;;;;;5034239;28;20029;-70
2020/12/05 03:15:26;;;;;;;35.92;20.27;;;4.70;93.50;;;;;;5045530;28;20487;-70
2020/12/05 03:17:52;;;;;;;37.22;21.00;;;4.70;93.40;;;;;;5040459;28;20037;-70
2020/12/05 03:20:17;;;;;;;31.00;18.35;;;4.70;93.50;;;;;;5050157;28;20083;-70
2020/12/05 03:22:43;;;;;;;34.22;19.50;;;4.70;93.40;;;;;;5050194;28;20044;-70
2020/12/05 03:25:09;;;;;;;31.27;18.92;;;4.70;93.40;;;;;;5041072;28;20146;-70
2020/12/05 03:27:34;;;;;;;33.30;18.92;;;4.60;93.30;;;;;;5035261;28;20033;-70
2020/12/05 03:30:01;;;;;;;34.00;19.65;;;4.70;93.40;;;;;;5033533;28;20037;-71
2020/12/05 03:32:30;;;;;;;34.08;19.52;;;4.60;93.40;;;;;;5036089;28;20045;-71
2020/12/05 03:34:55;;;;;;;34.30;20.30;;;4.60;93.60;;;;;;5053345;28;20029;-70
2020/12/05 03:37:24;;;;;;;29.05;18.58;;;4.60;93.40;;;;;;5039017;28;20035;-71
2020/12/05 03:39:50;;;;;;;34.65;20.60;;;4.60;93.40;;;;;;5034748;28;20029;-71
2020/12/05 03:42:16;;;;;;;33.63;18.95;;;4.60;93.40;;;;;;5036024;28;20389;-71
2020/12/05 03:44:41;;;;;;;35.42;20.30;;;4.60;93.40;;;;;;5034583;28;20026;-71
2020/12/05 03:47:07;;;;;;;35.00;19.90;;;4.50;93.50;;;;;;5035875;28;20025;-71
2020/12/05 03:49:32;;;;;;;32.53;19.10;;;4.50;93.50;;;;;;5053424;28;20029;-71
2020/12/05 03:52:02;;;;;;;34.53;19.27;;;4.50;93.50;;;;;;5053433;28;20046;-71
2020/12/05 03:54:28;;;;;;;36.08;20.15;;;4.50;93.50;;;;;;5035246;28;20049;-71
2020/12/05 03:56:53;;;;;;;30.48;18.88;;;4.60;93.50;;;;;;5041108;28;20512;-71
2020/12/05 03:59:19;;;;;;;32.53;19.27;;;4.60;93.50;;;;;;5034482;28;20025;-71
2020/12/05 04:01:44;;;;;;;32.63;18.10;;;4.50;93.50;;;;;;5045604;28;20025;-71
2020/12/05 04:04:10;;;;;;;32.70;19.20;;;4.50;93.60;;;;;;5053312;28;20087;-71
2020/12/05 04:06:35;;;;;;;33.25;19.65;;;4.50;93.70;;;;;;5047834;28;20025;-71
2020/12/05 04:09:01;;;;;;;38.20;20.88;;;4.40;93.70;;;;;;5053005;28;20665;-71
2020/12/05 04:11:27;;;;;;;32.33;18.27;;;4.40;93.80;;;;;;5052860;28;20078;-71
2020/12/05 04:13:52;;;;;;;27.40;18.30;;;4.40;93.90;;;;;;5051810;28;20108;-71
2020/12/05 04:16:18;;;;;;;33.35;18.58;;;4.30;94.00;;;;;;5045086;28;20021;-71
2020/12/05 04:18:43;;;;;;;31.30;17.98;;;4.40;94.00;;;;;;5048340;28;20033;-71
2020/12/05 04:21:09;;;;;;;35.22;20.00;;;4.40;94.00;;;;;;5045719;28;20113;-71
2020/12/05 04:23:34;;;;;;;30.05;17.58;;;4.40;93.90;;;;;;5046725;28;20036;-71
2020/12/05 04:25:59;;;;;;;34.35;19.70;;;4.40;93.90;;;;;;5038616;28;20029;-73
2020/12/05 04:28:25;;;;;;;32.33;17.77;;;4.40;93.90;;;;;;5038701;28;20029;-71
2020/12/05 04:30:50;;;;;;;35.30;19.33;;;4.40;93.90;;;;;;5037747;28;20082;-71
2020/12/05 04:33:16;;;;;;;29.10;16.85;;;4.30;93.90;;;;;;5052621;28;20036;-71
2020/12/05 04:35:41;;;;;;;28.42;16.48;;;4.40;94.00;;;;;;5049286;28;20510;-71
2020/12/05 04:38:07;;;;;;;31.15;16.58;;;4.40;94.00;;;;;;5041333;28;20086;-71
2020/12/05 04:40:33;;;;;;;34.53;17.98;;;4.40;93.90;;;;;;5050876;28;20363;-71
2020/12/05 04:43:01;;;;;;;33.83;18.40;;;4.50;93.90;;;;;;5040860;28;20037;-71
2020/12/05 04:45:27;;;;;;;32.97;19.05;;;4.50;93.90;;;;;;5050802;28;20103;-71
2020/12/05 04:47:55;;;;;;;26.92;16.83;;;4.50;93.80;;;;;;5051580;28;20025;-71
2020/12/05 04:50:23;;;;;;;28.30;16.00;;;4.50;93.90;;;;;;5037650;28;20033;-71
2020/12/05 04:52:50;;;;;;;29.08;17.25;;;4.50;93.90;;;;;;5037968;28;20056;-71
2020/12/05 04:55:20;;;;;;;28.52;16.73;;;4.50;93.80;;;;;;5041267;28;20036;-71
2020/12/05 04:57:57;;;;;;;32.28;17.02;;;4.50;93.90;;;;;;5043715;28;20074;-71
2020/12/05 05:00:23;;;;;;;27.52;15.35;;;4.60;93.90;;;;;;5037061;28;20405;-70
2020/12/05 05:02:49;;;;;;;30.70;16.83;;;4.60;93.80;;;;;;5044302;28;20029;-70
2020/12/05 05:05:15;;;;;;;30.33;16.58;;;4.60;93.80;;;;;;5033033;28;20596;-70
2020/12/05 05:07:49;;;;;;;29.02;16.90;;;4.60;93.70;;;;;;5015994;28;20068;-70
2020/12/05 05:10:17;;;;;;;25.02;15.70;;;4.70;93.70;;;;;;5053145;28;20389;-70
2020/12/05 05:12:43;;;;;;;29.55;16.20;;;4.70;93.70;;;;;;5046005;28;20030;-71
2020/12/05 05:15:29;;;;;;;25.80;16.58;;;4.70;93.60;;;;;;5032746;28;20040;-70
2020/12/05 05:18:03;;;;;;;31.98;17.40;;;4.70;93.60;;;;;;5037726;28;20139;-70
2020/12/05 05:20:35;;;;;;;26.75;16.55;;;4.70;93.60;;;;;;5052845;28;20496;-70
2020/12/05 05:23:28;;;;;;;28.67;17.00;;;4.60;93.80;;;;;;5029594;28;20427;-70
2020/12/05 05:25:58;;;;;;;29.05;16.00;;;4.70;93.60;;;;;;5039255;28;20064;-70
2020/12/05 05:28:32;;;;;;;24.23;15.52;;;4.80;93.60;;;;;;5051780;28;20415;-70
2020/12/05 05:31:14;;;;;;;26.02;15.93;;;4.80;93.60;;;;;;5052030;28;20025;-70
2020/12/05 05:33:42;;;;;;;28.92;17.20;;;4.70;93.60;;;;;;5036432;28;20455;-70
2020/12/05 05:36:19;;;;;;;28.05;16.77;;;4.80;93.60;;;;;;5039757;28;22135;-70
2020/12/05 05:39:06;;;;;;;23.05;15.55;;;4.80;93.60;;;;;;5036788;28;20389;-70
2020/12/05 05:41:33;;;;;;;27.67;17.17;;;4.80;93.60;;;;;;5037924;28;20025;-70
2020/12/05 05:44:10;;;;;;;31.10;17.90;;;4.80;93.50;;;;;;5052401;28;20389;-70
2020/12/05 05:46:40;;;;;;;29.25;16.52;;;4.80;93.50;;;;;;5046418;28;20017;-70
2020/12/05 05:49:31;;;;;;;27.33;16.25;;;4.80;93.40;;;;;;5049368;28;20511;-70
2020/12/05 05:52:17;;;;;;;32.25;18.10;;;4.80;93.40;;;;;;5045275;28;20039;-70
2020/12/05 05:55:03;;;;;;;27.58;16.50;;;4.70;93.40;;;;;;5049226;28;20437;-70
2020/12/05 05:57:58;;;;;;;33.60;18.48;;;4.70;93.50;;;;;;5049229;28;20040;-67
2020/12/05 06:00:46;;;;;;;29.98;17.05;;;4.60;93.50;;;;;;5044528;28;20071;-65
2020/12/05 06:03:43;;;;;;;30.52;17.60;;;4.70;93.50;;;;;;5049587;28;20044;-67
2020/12/05 06:06:33;;;;;;;28.85;16.55;;;4.70;93.50;;;;;;5049023;28;20507;-66
2020/12/05 06:09:42;;;;;;;33.70;18.00;;;4.60;93.50;;;;;;5043684;28;20037;-66
2020/12/05 06:12:32;;;;;;;26.80;15.25;;;4.60;93.50;;;;;;5041022;28;20501;-67
2020/12/05 06:15:17;;;;;;;29.80;15.90;;;4.60;93.60;;;;;;5046374;28;20067;-65
2020/12/05 06:18:03;;;;;;;28.50;16.15;;;4.60;93.60;;;;;;5047165;28;20028;-65
2020/12/05 06:20:49;;;;;;;28.02;16.30;;;4.70;93.60;;;;;;5048700;28;20086;-65
2020/12/05 06:23:45;;;;;;;28.55;15.77;;;4.70;93.60;;;;;;5034431;28;20029;-65
2020/12/05 06:26:33;;;;;;;26.58;15.15;;;4.70;93.70;;;;;;5034856;28;20032;-65
2020/12/05 06:29:19;;;;;;;27.58;15.85;;;4.70;93.70;;;;;;5032411;28;20493;-65
2020/12/05 06:32:06;;;;;;;27.45;16.92;;;4.70;93.70;;;;;;5032062;28;20382;-65
2020/12/05 06:34:51;;;;;;;25.92;16.20;;;4.70;93.60;;;;;;5030160;28;20497;-65
2020/12/05 06:37:37;;;;;;;27.17;15.38;;;4.70;93.60;;;;;;5041205;28;20040;-64
2020/12/05 06:40:24;;;;;;;25.65;16.15;;;4.70;93.60;;;;;;5048779;28;20091;-64
2020/12/05 06:43:12;;;;;;;25.98;15.65;;;4.70;93.60;;;;;;5036464;28;20032;-65
2020/12/05 06:45:58;;;;;;;31.27;17.40;;;4.60;93.60;;;;;;5036386;28;20424;-65
2020/12/05 06:48:44;;;;;;;27.67;16.90;;;4.60;93.60;;;;;;5043981;28;20040;-65
2020/12/05 06:51:30;;;;;;;26.40;16.15;;;4.60;93.70;;;;;;5049148;28;20027;-65
2020/12/05 06:54:15;;;;;;;26.23;16.08;;;4.60;93.80;;;;;;5029808;28;20046;-65
2020/12/05 06:57:11;;;;;;;30.35;17.17;;;4.50;93.80;;;;;;5032363;28;20045;-65
2020/12/05 07:00:23;;;;;;;24.55;15.27;;;4.50;93.90;;;;;;5045650;28;20132;-65
2020/12/05 07:03:10;;;;;;;24.80;16.00;;;4.50;93.80;;;;;;5047523;28;20119;-65
2020/12/05 07:05:59;;;;;;;33.28;17.70;;;4.50;93.90;;;;;;5023290;28;20112;-65
2020/12/05 07:08:51;;;;;;;31.05;16.40;;;4.50;94.00;;;;;;5010953;28;20029;-65
2020/12/05 07:11:37;;;;;;;27.73;16.00;;;4.50;94.00;;;;;;5016598;28;20044;-65
2020/12/05 07:14:26;;;;;;;28.52;16.60;;;4.50;94.10;;;;;;5015080;28;20026;-65
2020/12/05 07:17:21;;;;;;;28.08;16.50;;;4.60;94.10;;;;;;5019673;28;20573;-65
2020/12/05 07:20:08;;;;;;;29.58;17.38;;;4.60;94.20;;;;;;5020746;28;20033;-65
2020/12/05 07:22:55;;;;;;;28.52;15.45;;;4.60;94.20;;;;;;5026618;28;20501;-65
2020/12/05 07:25:42;;;;;;;28.80;15.18;;;4.60;94.20;;;;;;5015285;28;20161;-65
2020/12/05 07:28:28;;;;;;;26.42;14.45;;;4.60;94.30;;;;;;5031241;28;20060;-65
2020/12/05 07:31:15;;;;;;;26.35;15.32;;;4.60;94.30;;;;;;5014196;28;20056;-65
2020/12/05 07:33:51;;;;;;;23.05;13.98;;;4.70;94.30;;;;;;5019010;28;20045;-66
2020/12/05 07:36:17;;;;;;;26.20;17.27;;;4.70;94.30;;;;;;5015023;28;20030;-68
2020/12/05 07:38:44;;;;;;;32.47;18.02;;;4.70;94.30;;;;;;5024096;28;20400;-67
2020/12/05 07:41:15;;;;;;;27.25;16.25;;;4.70;94.30;;;;;;5033559;28;20033;-67
2020/12/05 07:43:42;;;;;;;26.08;15.05;;;4.70;94.30;;;;;;5024691;28;20036;-67
2020/12/05 07:46:09;;;;;;;25.38;16.58;;;4.80;94.40;;;;;;5032886;28;20489;-67
2020/12/05 07:48:35;;;;;;;25.40;15.52;;;4.80;94.40;;;;;;5020921;28;20362;-66
2020/12/05 07:51:02;;;;;;;26.70;15.50;;;4.90;94.40;;;;;;5034424;28;20025;-67
2020/12/05 07:53:37;;;;;;;23.90;15.55;;;4.90;94.40;;;;;;5030715;28;20056;-66
2020/12/05 07:56:16;;;;;;;23.75;14.32;;;5.00;94.40;;;;;;5033934;28;20113;-67
2020/12/05 07:58:51;;;;;;;23.65;14.23;;;5.10;94.30;;;;;;5029313;28;20061;-67
2020/12/05 08:01:54;;;;;;;23.02;14.98;;;5.10;94.30;;;;;;5014556;28;20022;-67
2020/12/05 08:04:42;;;;;;;24.45;14.68;;;5.20;94.30;;;;;;5039169;28;20082;-67
2020/12/05 08:07:37;;;;;;;25.77;14.85;;;5.20;94.30;;;;;;5030343;28;20382;-68
2020/12/05 08:10:07;;;;;;;;;;;5.20;94.30;;;;;;5026863;28;20030;-68
2020/12/05 08:12:58;;;;;;;24.17;14.60;;;5.30;94.20;;;;;;5024087;28;19908;-68
2020/12/05 08:15:26;;;;;;;21.60;13.60;;;5.30;94.20;;;;;;5030569;28;20033;-67
2020/12/05 08:17:52;;;;;;;26.02;14.82;;;5.30;94.20;;;;;;5031876;28;20037;-67
2020/12/05 08:20:17;;;;;;;23.98;14.20;;;5.30;94.20;;;;;;5031824;28;20116;-67
2020/12/05 08:22:43;;;;;;;24.15;15.18;;;5.40;94.20;;;;;;5032628;28;20078;-67
2020/12/05 08:25:10;;;;;;;22.92;14.65;;;5.40;94.20;;;;;;5032544;28;20064;-67
2020/12/05 08:27:36;;;;;;;27.17;16.55;;;5.40;94.10;;;;;;5024549;28;20037;-67
2020/12/05 08:30:05;;;;;;;27.88;15.35;;;5.50;94.10;;;;;;5021574;28;20026;-68
2020/12/05 08:32:31;;;;;;;28.35;15.77;;;5.50;94.10;;;;;;5020482;28;20033;-67
2020/12/05 08:35:14;;;;;;;24.92;15.38;;;5.60;94.10;;;;;;5023408;28;20053;-67
2020/12/05 08:37:44;;;;;;;25.35;15.90;;;5.60;94.10;;;;;;5020353;28;20095;-67
2020/12/05 08:40:16;;;;;;;23.70;15.45;;;5.70;94.10;;;;;;5022390;28;20026;-67
2020/12/05 08:42:46;;;;;;;30.77;16.33;;;5.80;94.00;;;;;;5030856;28;20423;-67
2020/12/05 08:45:20;;;;;;;25.65;15.60;;;5.90;94.00;;;;;;5030690;28;20021;-68
2020/12/05 08:47:47;;;;;;;28.25;15.70;;;5.90;93.90;;;;;;5027281;28;20036;-67
2020/12/05 08:50:32;;;;;;;24.52;14.85;;;6.00;93.90;;;;;;5031116;28;20033;-67
2020/12/05 08:53:00;;;;;;;25.05;15.52;;;6.00;93.90;;;;;;5013600;28;20069;-67
2020/12/05 08:55:28;;;;;;;27.88;16.17;;;6.00;93.90;;;;;;5020453;28;20049;-67
2020/12/05 08:57:58;;;;;;;30.45;16.65;;;6.10;93.90;;;;;;5035968;28;20041;-67
2020/12/05 09:00:25;;;;;;;26.90;16.13;;;6.20;93.90;;;;;;5053143;28;20112;-68
2020/12/05 09:02:51;;;;;;;28.05;16.63;;;6.20;93.90;;;;;;5022529;28;20038;-68
2020/12/05 09:05:17;;;;;;;26.35;15.80;;;6.20;93.90;;;;;;5033126;28;20036;-69
2020/12/05 09:07:59;;;;;;;26.42;15.70;;;6.30;93.80;;;;;;5030039;28;20108;-68
2020/12/05 09:10:26;;;;;;;26.85;15.73;;;6.30;93.80;;;;;;5032448;28;20026;-68
2020/12/05 09:12:52;;;;;;;27.73;16.25;;;6.40;93.80;;;;;;5027717;28;20025;-68
2020/12/05 09:15:18;;;;;;;23.38;15.05;;;6.50;93.80;;;;;;5033016;28;20028;-68
2020/12/05 09:17:44;;;;;;;24.48;14.73;;;6.50;93.80;;;;;;5021440;28;20112;-68
2020/12/05 09:20:30;;;;;;;23.48;14.00;;;6.60;93.80;;;;;;5031653;28;20036;-65
2020/12/05 09:23:27;;;;;;;22.77;14.13;;;6.70;93.80;;;;;;5030758;28;20061;-69
2020/12/05 09:26:03;;;;;;;21.65;13.25;;;6.80;93.70;;;;;;5031599;28;20029;-69
2020/12/05 09:28:30;;;;;;;23.20;13.32;;;6.90;93.70;;;;;;5032230;28;20445;-69
2020/12/05 09:30:56;;;;;;;23.42;13.57;;;6.90;93.60;;;;;;5030983;28;20029;-70
2020/12/05 09:33:22;;;;;;;20.55;12.98;;;7.00;93.60;;;;;;5041015;28;20031;-68
2020/12/05 09:35:48;;;;;;;20.50;13.40;;;7.10;93.50;;;;;;5024610;28;20037;-69
2020/12/05 09:38:15;;;;;;;20.35;13.23;;;7.10;93.40;;;;;;5022313;28;20513;-69
2020/12/05 09:40:40;;;;;;;18.98;12.13;;;7.20;93.40;;;;;;5029930;28;20112;-69
2020/12/05 09:43:06;;;;;;;21.60;13.57;;;7.20;93.30;;;;;;5028622;28;20528;-69
2020/12/05 09:45:34;;;;;;;17.77;12.27;;;7.20;93.20;;;;;;5012546;28;20029;-69
2020/12/05 09:48:00;;;;;;;17.83;11.23;;;7.30;93.20;;;;;;5025044;28;20042;-69
2020/12/05 09:50:26;;;;;;;17.85;11.27;;;7.30;93.20;;;;;;5032191;28;20018;-69
2020/12/05 09:52:51;;;;;;;18.67;11.77;;;7.40;93.10;;;;;;5028650;28;20102;-69
2020/12/05 09:55:17;;;;;;;18.17;11.93;;;7.40;93.10;;;;;;5032219;28;20029;-69
2020/12/05 09:57:42;;;;;;;16.80;11.93;;;7.50;93.00;;;;;;5031055;28;20367;-69
2020/12/05 10:00:11;;;;;;;17.52;11.50;;;7.50;92.90;;;;;;5032379;28;20018;-69
2020/12/05 10:02:38;;;;;;;20.55;12.75;;;7.50;92.90;;;;;;5030037;28;20029;-69
2020/12/05 10:05:05;;;;;;;16.98;10.77;;;7.60;92.90;;;;;;5031820;28;20029;-69
2020/12/05 10:07:30;;;;;;;15.88;10.45;;;7.60;92.90;;;;;;5012971;28;20383;-69
2020/12/05 10:09:56;;;;;;;15.85;10.75;;;7.70;92.80;;;;;;5031979;28;20026;-69
2020/12/05 10:12:21;;;;;;;17.98;10.63;;;7.70;92.80;;;;;;5031330;28;20029;-69
2020/12/05 10:14:46;;;;;;;18.10;11.15;;;7.70;92.70;;;;;;5031642;28;20080;-69
2020/12/05 10:17:12;;;;;;;20.83;11.95;;;7.80;92.70;;;;;;5031002;28;20067;-69
2020/12/05 10:19:38;;;;;;;16.73;10.68;;;7.90;92.60;;;;;;5030700;28;20022;-69
2020/12/05 10:22:03;;;;;;;18.23;10.38;;;7.90;92.50;;;;;;5013825;28;20025;-69
2020/12/05 10:24:29;;;;;;;17.42;10.45;;;8.00;92.50;;;;;;5029629;28;20029;-69
2020/12/05 10:26:54;;;;;;;14.95;10.05;;;8.00;92.40;;;;;;5031636;28;20519;-69
2020/12/05 10:29:21;;;;;;;18.17;10.20;;;8.10;92.40;;;;;;5044307;28;20515;-69
2020/12/05 10:31:48;;;;;;;20.38;11.23;;;8.10;92.30;;;;;;5051273;28;20112;-69
2020/12/05 10:34:14;;;;;;;16.42;10.40;;;8.20;92.20;;;;;;5018199;28;20121;-69
2020/12/05 10:36:40;;;;;;;16.98;10.75;;;8.20;92.20;;;;;;5016732;28;20040;-69
2020/12/05 10:39:10;;;;;;;16.48;11.10;;;8.40;92.10;;;;;;5031079;28;20044;-69
2020/12/05 10:41:36;;;;;;;18.30;11.05;;;8.40;91.90;;;;;;5031745;28;20424;-69
2020/12/05 10:44:06;;;;;;;17.25;11.20;;;8.40;91.80;;;;;;5030222;28;20045;-69
2020/12/05 10:46:32;;;;;;;16.85;10.98;;;8.50;91.60;;;;;;5031520;28;20033;-69
2020/12/05 10:48:57;;;;;;;15.55;10.23;;;8.50;91.60;;;;;;5027796;28;20088;-69
2020/12/05 10:51:23;;;;;;;17.10;10.85;;;8.50;91.40;;;;;;5031265;28;20025;-69
2020/12/05 10:53:48;;;;;;;17.60;10.60;;;8.60;91.30;;;;;;5031976;28;20049;-69
2020/12/05 10:56:14;;;;;;;15.80;10.65;;;8.60;91.00;;;;;;5032263;28;20104;-69
2020/12/05 10:58:39;;;;;;;15.05;9.82;;;8.70;90.90;;;;;;5029602;28;20037;-69
2020/12/05 11:01:05;;;;;;;14.88;9.57;;;8.70;90.60;;;;;;5013492;28;20026;-69
2020/12/05 11:03:30;;;;;;;16.35;10.13;;;8.80;90.30;;;;;;5030097;28;20052;-69
2020/12/05 11:05:56;;;;;;;16.33;10.27;;;8.80;90.10;;;;;;5029138;28;20036;-69
2020/12/05 11:08:21;;;;;;;17.83;10.30;;;8.90;89.70;;;;;;5030605;28;20385;-69
2020/12/05 11:10:47;;;;;;;17.75;11.02;;;8.90;89.00;;;;;;5031063;28;20035;-68
2020/12/05 11:13:13;;;;;;;16.02;9.68;;;9.00;88.70;;;;;;4990812;28;20029;-68
2020/12/05 11:15:39;;;;;;;16.42;10.15;;;9.00;88.50;;;;;;4993738;28;20164;-69
2020/12/05 11:18:05;;;;;;;15.32;9.85;;;9.00;88.00;;;;;;5014970;28;20042;-68
2020/12/05 11:20:30;;;;;;;15.43;10.20;;;9.10;87.60;;;;;;5030754;28;20496;-68
2020/12/05 11:22:56;;;;;;;16.20;9.73;;;9.10;87.30;;;;;;5029990;28;20026;-68
2020/12/05 11:25:21;;;;;;;15.68;10.02;;;9.10;87.10;;;;;;5031192;28;20025;-68
2020/12/05 11:27:47;;;;;;;16.88;10.23;;;9.10;86.90;;;;;;5029973;28;20148;-68
2020/12/05 11:30:12;;;;;;;16.70;10.07;;;9.10;86.50;;;;;;5030318;28;20032;-68
2020/12/05 11:32:38;;;;;;;15.65;9.32;;;9.20;86.10;;;;;;5028673;28;20101;-68
2020/12/05 11:35:07;;;;;;;16.42;9.27;;;9.20;86.00;;;;;;5029460;28;20104;-68
2020/12/05 11:37:33;;;;;;;16.80;9.52;;;9.30;85.90;;;;;;5030200;28;20389;-68
2020/12/05 11:39:58;;;;;;;14.43;9.38;;;9.30;85.60;;;;;;5030709;28;20021;-68
2020/12/05 11:42:28;;;;;;;16.23;10.15;;;9.30;85.40;;;;;;5029730;28;20051;-68
2020/12/05 11:44:54;;;;;;;16.00;9.90;;;9.40;84.90;;;;;;5039376;28;20561;-68
2020/12/05 11:47:19;;;;;;;18.40;10.80;;;9.50;84.30;;;;;;5037078;28;20612;-68
2020/12/05 11:49:45;;;;;;;17.10;11.00;;;9.50;84.10;;;;;;5029440;28;20084;-68
2020/12/05 11:52:10;;;;;;;14.73;9.60;;;9.60;83.10;;;;;;5030190;28;20061;-68
2020/12/05 11:54:36;;;;;;;15.15;9.68;;;9.60;83.10;;;;;;5030085;28;20056;-68
2020/12/05 11:57:01;;;;;;;16.88;10.50;;;9.60;82.80;;;;;;5034314;28;20018;-67
2020/12/05 11:59:27;;;;;;;17.05;10.82;;;9.70;82.00;;;;;;5001746;28;20128;-68
2020/12/05 12:01:52;;;;;;;15.80;10.48;;;9.70;81.70;;;;;;5031594;28;20022;-68
2020/12/05 12:04:18;;;;;;;17.80;11.95;;;9.80;81.40;;;;;;5030590;28;20025;-68
2020/12/05 12:06:43;;;;;;;15.70;10.18;;;9.90;80.80;;;;;;5034265;28;20053;-68
2020/12/05 12:09:09;;;;;;;18.27;10.20;;;9.90;80.50;;;;;;5033479;28;20137;-68
2020/12/05 12:11:34;;;;;;;17.92;10.40;;;9.90;80.30;;;;;;5034183;28;20088;-68
2020/12/05 12:14:00;;;;;;;17.10;10.40;;;9.90;80.00;;;;;;5023046;28;20033;-68
2020/12/05 12:16:25;;;;;;;17.80;10.32;;;9.90;79.50;;;;;;5014498;28;20061;-68
2020/12/05 12:18:53;;;;;;;17.75;10.90;;;10.00;79.50;;;;;;5027433;28;20032;-68
2020/12/05 12:21:26;;;;;;;19.95;11.70;;;9.90;79.10;;;;;;5033773;28;20033;-68
2020/12/05 12:23:52;;;;;;;15.75;10.65;;;9.90;78.90;;;;;;5032907;28;20029;-68
2020/12/05 12:26:17;;;;;;;17.75;10.63;;;9.90;78.70;;;;;;5030738;28;20030;-68
2020/12/05 12:28:43;;;;;;;19.75;11.40;;;9.90;78.40;;;;;;5032035;28;20068;-66
2020/12/05 12:31:08;;;;;;;17.58;10.73;;;9.90;78.00;;;;;;5033470;28;20026;-69
2020/12/05 12:33:35;;;;;;;17.50;11.40;;;9.90;78.00;;;;;;5008627;28;20017;-68
2020/12/05 12:36:01;;;;;;;18.42;11.48;;;9.80;77.60;;;;;;5030965;28;20026;-67
2020/12/05 12:38:26;;;;;;;15.25;9.88;;;9.80;77.60;;;;;;5020362;28;20651;-68
2020/12/05 12:40:52;;;;;;;18.85;10.38;;;9.80;77.50;;;;;;5033135;28;20018;-68
2020/12/05 12:43:17;;;;;;;17.55;10.80;;;9.80;77.10;;;;;;5026868;28;20172;-68
2020/12/05 12:45:44;;;;;;;19.23;10.40;;;9.70;77.00;;;;;;5025567;28;20018;-68
2020/12/05 12:50:36;;;;;;;16.05;10.30;;;9.70;77.00;;;;;;5032755;28;20032;-70
2020/12/05 12:53:02;;;;;;;18.35;10.55;;;9.70;76.90;;;;;;5031915;28;20045;-69
2020/12/05 12:55:28;;;;;;;17.05;11.55;;;9.70;77.00;;;;;;5033148;28;20024;-69
2020/12/05 12:57:58;;;;;;;18.70;11.07;;;9.70;76.90;;;;;;5026287;28;20445;-70
2020/12/05 13:00:24;;;;;;;18.65;11.40;;;9.60;76.90;;;;;;5020586;28;20109;-69